Time;durP1;ratioP1;P1;durP2;ratioP2;P2;SDS_P1;SDS_P2;PMS_P1;PMS_P2;Temp;Humidity;BMP_temperature;BMP_pressure;BME280_temperature;BME280_humidity;BME280_pressure;Samples;Min_cycle;Max_cycle;Signal;HPM_P1;HPM_P2
2022/02/14 00:01:52;;;;;;;832.75;481.98;;;;;;;;;;4951189;28;20106;-73
2022/02/14 00:04:18;;;;;;;831.25;488.98;;;;;;;;;;4950616;28;20110;-73
2022/02/14 00:06:44;;;;;;;828.30;486.90;;;;;;;;;;4949866;28;20035;-73
2022/02/14 00:09:10;;;;;;;829.10;483.95;;;;;;;;;;4945327;28;20036;-73
2022/02/14 00:11:36;;;;;;;832.80;491.52;;;;;;;;;;4950005;28;20032;-73
2022/02/14 00:14:02;;;;;;;834.50;503.15;;;;;;;;;;4950764;28;20114;-73
2022/02/14 00:16:28;;;;;;;826.92;483.65;;;;;;;;;;4949273;28;20032;-73
2022/02/14 00:18:54;;;;;;;830.13;486.27;;;;;;;;;;4949677;28;20043;-73
2022/02/14 00:21:20;;;;;;;832.88;496.55;;;;;;;;;;4945914;29;20118;-73
2022/02/14 00:23:46;;;;;;;833.40;496.95;;;;;;;;;;4966507;28;20032;-73
2022/02/14 00:26:12;;;;;;;830.58;491.65;;;;;;;;;;4947141;28;20562;-73
2022/02/14 00:28:38;;;;;;;829.08;483.75;;;;;;;;;;4949488;28;20035;-74
2022/02/14 00:31:05;;;;;;;831.10;487.30;;;;;;;;;;4946345;29;20510;-73
2022/02/14 00:33:31;;;;;;;833.45;494.33;;;;;;;;;;4947704;29;20106;-74
2022/02/14 00:35:57;;;;;;;881.47;502.00;;;;;;;;;;4950161;28;20039;-74
2022/02/14 00:38:23;;;;;;;843.30;497.67;;;;;;;;;;4940183;28;20063;-73
2022/02/14 00:40:49;;;;;;;832.03;496.45;;;;;;;;;;4943663;29;20046;-73
2022/02/14 00:43:15;;;;;;;831.30;489.83;;;;;;;;;;4948092;29;20035;-74
2022/02/14 00:45:41;;;;;;;828.67;491.05;;;;;;;;;;4949306;28;20042;-73
2022/02/14 00:48:07;;;;;;;831.42;493.02;;;;;;;;;;4950189;28;20047;-73
2022/02/14 00:50:33;;;;;;;829.22;486.90;;;;;;;;;;4947281;28;20081;-73
2022/02/14 00:53:00;;;;;;;826.88;483.50;;;;;;;;;;4947487;28;20425;-73
2022/02/14 00:55:26;;;;;;;833.83;497.77;;;;;;;;;;4947668;28;20038;-74
2022/02/14 00:57:52;;;;;;;833.75;501.05;;;;;;;;;;4948945;29;20031;-73
2022/02/14 01:00:18;;;;;;;829.13;485.33;;;;;;;;;;4947362;28;20085;-73
2022/02/14 01:02:44;;;;;;;832.03;498.23;;;;;;;;;;4947682;28;20035;-73
2022/02/14 01:05:10;;;;;;;833.22;497.67;;;;;;;;;;4949283;28;20036;-73
2022/02/14 01:07:37;;;;;;;833.17;496.67;;;;;;;;;;4948744;28;20058;-73
2022/02/14 01:10:04;;;;;;;839.85;504.35;;;;;;;;;;4949241;29;20058;-73
2022/02/14 01:12:30;;;;;;;830.20;487.15;;;;;;;;;;4949033;28;20062;-73
2022/02/14 01:14:56;;;;;;;833.38;493.65;;;;;;;;;;4948268;28;20027;-75
2022/02/14 01:17:22;;;;;;;831.97;490.88;;;;;;;;;;4946727;29;20024;-73
2022/02/14 01:19:48;;;;;;;837.00;498.58;;;;;;;;;;4948589;29;20042;-73
2022/02/14 01:22:15;;;;;;;831.78;489.85;;;;;;;;;;4946979;29;20039;-73
2022/02/14 01:24:41;;;;;;;830.58;487.02;;;;;;;;;;4947143;29;20039;-74
2022/02/14 01:27:07;;;;;;;834.00;496.23;;;;;;;;;;4949199;28;20047;-73
2022/02/14 01:29:33;;;;;;;830.95;491.13;;;;;;;;;;4945515;28;20031;-73
2022/02/14 01:32:00;;;;;;;834.30;496.25;;;;;;;;;;4948698;28;20031;-74
2022/02/14 01:34:26;;;;;;;834.92;500.65;;;;;;;;;;4945570;28;20061;-73
2022/02/14 01:36:52;;;;;;;834.08;495.88;;;;;;;;;;4948256;28;20127;-73
2022/02/14 01:39:18;;;;;;;833.63;499.92;;;;;;;;;;4946282;28;20032;-73
2022/02/14 01:41:44;;;;;;;833.53;501.80;;;;;;;;;;4948993;28;20889;-74
2022/02/14 01:44:11;;;;;;;833.88;507.30;;;;;;;;;;4973957;28;20062;-73
2022/02/14 01:46:37;;;;;;;829.53;492.10;;;;;;;;;;4951019;28;20035;-74
2022/02/14 01:49:04;;;;;;;832.25;493.25;;;;;;;;;;4951052;28;20085;-74
2022/02/14 01:51:32;;;;;;;835.20;505.55;;;;;;;;;;4949668;28;20030;-74
2022/02/14 01:53:58;;;;;;;833.65;499.23;;;;;;;;;;4950696;29;20359;-73
2022/02/14 01:56:24;;;;;;;832.40;495.60;;;;;;;;;;4950637;29;20027;-74
2022/02/14 01:58:49;;;;;;;831.40;493.13;;;;;;;;;;4951734;28;21832;-73
2022/02/14 02:01:15;;;;;;;830.72;494.50;;;;;;;;;;4950989;28;20468;-73
2022/02/14 02:03:41;;;;;;;831.20;496.17;;;;;;;;;;4950853;28;20766;-73
2022/02/14 02:06:07;;;;;;;833.47;494.75;;;;;;;;;;4951289;29;20503;-73
2022/02/14 02:08:33;;;;;;;833.53;502.13;;;;;;;;;;4950988;28;20031;-73
2022/02/14 02:13:49;;;;;;;833.22;497.10;;;;;;;;;;4951252;28;20043;-73
2022/02/14 02:16:15;;;;;;;832.50;496.70;;;;;;;;;;4952476;28;20067;-73
2022/02/14 02:18:41;;;;;;;829.47;490.58;;;;;;;;;;4950057;28;20697;-73
2022/02/14 02:21:07;;;;;;;832.15;499.15;;;;;;;;;;4950350;29;20043;-74
2022/02/14 02:23:33;;;;;;;832.40;496.65;;;;;;;;;;4949662;29;20043;-73
2022/02/14 02:25:59;;;;;;;831.58;499.63;;;;;;;;;;4949909;28;20046;-73
2022/02/14 02:28:25;;;;;;;836.47;508.23;;;;;;;;;;4950837;28;20027;-73
2022/02/14 02:30:51;;;;;;;835.55;509.50;;;;;;;;;;4944812;28;20039;-74
2022/02/14 02:33:17;;;;;;;838.45;517.47;;;;;;;;;;4949020;28;20039;-73
2022/02/14 02:35:43;;;;;;;834.55;501.67;;;;;;;;;;4951436;28;20047;-73
2022/02/14 02:38:09;;;;;;;837.80;505.48;;;;;;;;;;4946402;29;20110;-73
2022/02/14 02:40:35;;;;;;;838.05;514.08;;;;;;;;;;4965355;28;20115;-73
2022/02/14 02:43:01;;;;;;;836.58;509.80;;;;;;;;;;4952591;28;20039;-73
2022/02/14 02:45:27;;;;;;;837.58;509.73;;;;;;;;;;4951059;29;20054;-73
2022/02/14 02:47:55;;;;;;;843.95;515.00;;;;;;;;;;4951115;28;20499;-73
2022/02/14 02:50:21;;;;;;;839.30;513.40;;;;;;;;;;4943524;28;20081;-73
2022/02/14 02:52:47;;;;;;;840.58;514.40;;;;;;;;;;4950008;28;20039;-73
2022/02/14 02:55:13;;;;;;;837.70;517.17;;;;;;;;;;4951780;28;20035;-73
2022/02/14 02:57:39;;;;;;;837.22;510.85;;;;;;;;;;4950818;28;20475;-73
2022/02/14 03:00:06;;;;;;;841.35;525.83;;;;;;;;;;4948133;28;20034;-74
2022/02/14 03:02:32;;;;;;;842.35;528.70;;;;;;;;;;4941507;29;20044;-73
2022/02/14 03:04:57;;;;;;;839.78;519.20;;;;;;;;;;4962297;28;20027;-73
2022/02/14 03:07:23;;;;;;;840.30;523.60;;;;;;;;;;4958127;28;20174;-73
2022/02/14 03:09:49;;;;;;;839.60;518.30;;;;;;;;;;4949148;29;20039;-73
2022/02/14 03:12:15;;;;;;;835.88;507.55;;;;;;;;;;4944659;29;20024;-73
2022/02/14 03:14:41;;;;;;;840.30;521.63;;;;;;;;;;4949987;28;20067;-73
2022/02/14 03:17:11;;;;;;;838.15;517.03;;;;;;;;;;4951308;28;20031;-73
2022/02/14 03:19:37;;;;;;;837.67;508.90;;;;;;;;;;4950240;28;20040;-74
2022/02/14 03:22:04;;;;;;;836.92;511.30;;;;;;;;;;4947518;29;20364;-73
2022/02/14 03:24:30;;;;;;;839.67;516.53;;;;;;;;;;4950926;28;20410;-73
2022/02/14 03:26:56;;;;;;;840.63;523.55;;;;;;;;;;4949652;28;20034;-73
2022/02/14 03:29:22;;;;;;;839.22;519.03;;;;;;;;;;4950746;29;20023;-73
2022/02/14 03:31:48;;;;;;;840.28;517.60;;;;;;;;;;4949154;28;20027;-73
2022/02/14 03:34:14;;;;;;;839.33;518.80;;;;;;;;;;4948647;29;20093;-73
2022/02/14 03:36:41;;;;;;;838.38;518.17;;;;;;;;;;4950145;28;20069;-73
2022/02/14 03:39:07;;;;;;;839.80;520.78;;;;;;;;;;4950339;28;20391;-73
2022/02/14 03:41:33;;;;;;;841.65;521.42;;;;;;;;;;4945850;28;20035;-73
2022/02/14 03:43:59;;;;;;;838.70;518.15;;;;;;;;;;4947463;29;20077;-73
2022/02/14 03:46:25;;;;;;;836.15;510.40;;;;;;;;;;4950581;28;20071;-73
2022/02/14 03:48:52;;;;;;;836.40;511.08;;;;;;;;;;4949204;28;20070;-73
2022/02/14 03:51:18;;;;;;;834.40;502.73;;;;;;;;;;4951013;28;20032;-73
2022/02/14 03:53:44;;;;;;;840.85;520.88;;;;;;;;;;4945908;28;20041;-73
2022/02/14 03:56:10;;;;;;;839.00;512.70;;;;;;;;;;4943635;28;20031;-73
2022/02/14 03:58:35;;;;;;;836.05;509.60;;;;;;;;;;4949365;28;20035;-73
2022/02/14 04:01:01;;;;;;;836.65;511.98;;;;;;;;;;4948320;28;20032;-73
2022/02/14 04:03:28;;;;;;;834.28;504.20;;;;;;;;;;4959868;28;20117;-73
2022/02/14 04:05:54;;;;;;;838.60;517.60;;;;;;;;;;4944340;29;20039;-74
2022/02/14 04:08:20;;;;;;;836.80;517.88;;;;;;;;;;4945674;28;20161;-73
2022/02/14 04:10:45;;;;;;;835.53;506.70;;;;;;;;;;4951153;28;20065;-74
2022/02/14 04:13:12;;;;;;;836.72;511.15;;;;;;;;;;4948870;29;20047;-74
2022/02/14 04:15:39;;;;;;;836.33;512.72;;;;;;;;;;4949379;28;20542;-73
2022/02/14 04:18:05;;;;;;;837.53;513.17;;;;;;;;;;4949296;28;20050;-73
2022/02/14 04:20:31;;;;;;;837.72;514.35;;;;;;;;;;4968353;28;20036;-73
2022/02/14 04:22:57;;;;;;;836.20;512.42;;;;;;;;;;4949295;28;20364;-73
2022/02/14 04:25:23;;;;;;;836.97;511.25;;;;;;;;;;4946771;28;20027;-73
2022/02/14 04:27:49;;;;;;;836.80;513.10;;;;;;;;;;4948535;29;20032;-73
2022/02/14 04:30:15;;;;;;;838.05;515.70;;;;;;;;;;4948615;29;20122;-74
2022/02/14 04:32:41;;;;;;;836.92;510.73;;;;;;;;;;4971159;28;20046;-73
2022/02/14 04:35:08;;;;;;;839.47;522.45;;;;;;;;;;4948766;28;20062;-73
2022/02/14 04:37:34;;;;;;;835.75;515.03;;;;;;;;;;4950221;28;20122;-73
2022/02/14 04:40:00;;;;;;;844.35;523.85;;;;;;;;;;4947718;28;20110;-73
2022/02/14 04:42:27;;;;;;;840.20;522.83;;;;;;;;;;4946507;29;20027;-73
2022/02/14 04:44:53;;;;;;;835.15;518.95;;;;;;;;;;4948658;28;20035;-74
2022/02/14 04:47:19;;;;;;;840.20;522.00;;;;;;;;;;4947209;28;20046;-73
2022/02/14 04:49:45;;;;;;;842.40;531.17;;;;;;;;;;4948017;28;20043;-73
2022/02/14 04:52:11;;;;;;;839.28;524.40;;;;;;;;;;4948023;28;20147;-73
2022/02/14 04:54:37;;;;;;;844.53;538.38;;;;;;;;;;4948833;29;20027;-73
2022/02/14 04:57:03;;;;;;;837.10;524.00;;;;;;;;;;4947047;29;20027;-72
2022/02/14 04:59:29;;;;;;;841.35;532.60;;;;;;;;;;4947922;29;20411;-73
2022/02/14 05:01:55;;;;;;;841.40;532.08;;;;;;;;;;4949114;28;20031;-73
2022/02/14 05:04:22;;;;;;;840.85;531.70;;;;;;;;;;4948281;29;20035;-74
2022/02/14 05:06:48;;;;;;;839.33;529.05;;;;;;;;;;4949646;28;20035;-73
2022/02/14 05:09:14;;;;;;;839.60;529.47;;;;;;;;;;4946387;29;20686;-73
2022/02/14 05:11:40;;;;;;;846.60;544.83;;;;;;;;;;4947023;28;20141;-73
2022/02/14 05:14:06;;;;;;;839.95;529.30;;;;;;;;;;4948741;29;20027;-73
2022/02/14 05:16:32;;;;;;;845.72;540.83;;;;;;;;;;4947511;29;20027;-74
2022/02/14 05:18:58;;;;;;;843.00;537.38;;;;;;;;;;4947566;28;20127;-73
2022/02/14 05:21:24;;;;;;;843.88;534.05;;;;;;;;;;4947743;28;20118;-74
2022/02/14 05:23:55;;;;;;;839.97;529.83;;;;;;;;;;4943452;28;20142;-73
2022/02/14 05:26:21;;;;;;;841.72;528.75;;;;;;;;;;4949335;28;20085;-73
2022/02/14 05:28:47;;;;;;;841.28;530.10;;;;;;;;;;4940248;28;20036;-73
2022/02/14 05:31:13;;;;;;;853.50;537.17;;;;;;;;;;4944719;28;20023;-73
2022/02/14 05:33:39;;;;;;;839.70;525.80;;;;;;;;;;4944480;28;20082;-73
2022/02/14 05:36:05;;;;;;;836.95;523.38;;;;;;;;;;4947096;29;20053;-73
2022/02/14 05:38:31;;;;;;;841.00;527.00;;;;;;;;;;4947662;28;20043;-73
2022/02/14 05:40:57;;;;;;;843.45;532.60;;;;;;;;;;4949893;28;20042;-73
2022/02/14 05:43:23;;;;;;;841.92;536.80;;;;;;;;;;4949577;28;20066;-73
2022/02/14 05:45:49;;;;;;;838.97;526.42;;;;;;;;;;4947766;28;20114;-72
2022/02/14 05:48:15;;;;;;;842.70;535.95;;;;;;;;;;4948244;28;20043;-73
2022/02/14 05:50:41;;;;;;;839.00;527.25;;;;;;;;;;4948634;28;20039;-73
2022/02/14 05:53:07;;;;;;;843.90;541.05;;;;;;;;;;4947888;28;20139;-73
2022/02/14 05:55:33;;;;;;;841.15;535.80;;;;;;;;;;4946052;29;20558;-73
2022/02/14 05:57:59;;;;;;;838.70;526.22;;;;;;;;;;4947583;29;20580;-73
2022/02/14 06:00:25;;;;;;;842.38;534.88;;;;;;;;;;4946428;28;20444;-73
2022/02/14 06:02:51;;;;;;;844.00;537.38;;;;;;;;;;4945325;28;20043;-73
2022/02/14 06:05:17;;;;;;;841.47;532.58;;;;;;;;;;4939149;29;20602;-74
2022/02/14 06:07:43;;;;;;;839.10;524.97;;;;;;;;;;4945518;29;20023;-73
2022/02/14 06:10:09;;;;;;;844.60;535.35;;;;;;;;;;4948561;29;20042;-73
2022/02/14 06:12:35;;;;;;;840.25;536.08;;;;;;;;;;4946851;28;20368;-73
2022/02/14 06:15:01;;;;;;;836.67;526.70;;;;;;;;;;4948249;28;20035;-73
2022/02/14 06:17:27;;;;;;;840.13;532.53;;;;;;;;;;4959882;28;20036;-73
2022/02/14 06:19:53;;;;;;;837.95;525.75;;;;;;;;;;4942180;29;20042;-73
2022/02/14 06:22:20;;;;;;;842.42;538.03;;;;;;;;;;4946440;28;20468;-73
2022/02/14 06:24:46;;;;;;;843.80;542.58;;;;;;;;;;4947751;28;20362;-74
2022/02/14 06:27:12;;;;;;;840.35;534.33;;;;;;;;;;4957884;28;20094;-73
2022/02/14 06:29:38;;;;;;;840.15;535.83;;;;;;;;;;4943270;29;20031;-73
2022/02/14 06:32:04;;;;;;;836.17;520.25;;;;;;;;;;4947824;28;20111;-74
2022/02/14 06:34:30;;;;;;;839.80;532.75;;;;;;;;;;4943321;28;20106;-73
2022/02/14 06:36:56;;;;;;;842.03;544.63;;;;;;;;;;4951521;28;20615;-73
2022/02/14 06:39:22;;;;;;;848.08;541.70;;;;;;;;;;4949518;28;20031;-74
2022/02/14 06:41:48;;;;;;;840.83;536.83;;;;;;;;;;4950464;28;20110;-73
2022/02/14 06:44:15;;;;;;;840.03;537.10;;;;;;;;;;4951047;28;20469;-73
2022/02/14 06:46:41;;;;;;;840.35;534.92;;;;;;;;;;4952180;28;20069;-73
2022/02/14 06:49:07;;;;;;;840.60;540.30;;;;;;;;;;4950219;28;20063;-73
2022/02/14 06:51:35;;;;;;;838.50;530.92;;;;;;;;;;4949136;28;20085;-74
2022/02/14 06:54:01;;;;;;;838.40;527.92;;;;;;;;;;4950184;29;20042;-74
2022/02/14 06:56:27;;;;;;;841.40;536.97;;;;;;;;;;4950197;28;20570;-73
2022/02/14 06:58:53;;;;;;;840.35;535.67;;;;;;;;;;4948665;29;20039;-73
2022/02/14 07:01:19;;;;;;;840.28;535.03;;;;;;;;;;4950730;28;20039;-73
2022/02/14 07:03:45;;;;;;;846.60;539.60;;;;;;;;;;4950789;28;20039;-73
2022/02/14 07:06:11;;;;;;;842.17;545.17;;;;;;;;;;4949977;28;20046;-74
2022/02/14 07:08:37;;;;;;;837.00;529.35;;;;;;;;;;4947642;28;20039;-73
2022/02/14 07:11:03;;;;;;;843.42;543.40;;;;;;;;;;4949764;29;20378;-73
2022/02/14 07:13:29;;;;;;;839.03;531.00;;;;;;;;;;4949401;29;20036;-73
2022/02/14 07:15:55;;;;;;;839.83;533.05;;;;;;;;;;4957343;28;20039;-74
2022/02/14 07:18:21;;;;;;;839.70;534.03;;;;;;;;;;4950782;28;20112;-73
2022/02/14 07:20:47;;;;;;;839.85;536.55;;;;;;;;;;4941533;29;20488;-73
2022/02/14 07:23:13;;;;;;;841.65;539.05;;;;;;;;;;4946576;29;20032;-74
2022/02/14 07:25:39;;;;;;;837.78;535.30;;;;;;;;;;4948696;28;20027;-73
2022/02/14 07:28:05;;;;;;;832.72;519.13;;;;;;;;;;4948144;29;20035;-73
2022/02/14 07:30:32;;;;;;;836.05;529.08;;;;;;;;;;4950426;28;20114;-73
2022/02/14 07:32:58;;;;;;;835.58;521.97;;;;;;;;;;4948744;28;20558;-73
2022/02/14 07:35:24;;;;;;;835.30;519.65;;;;;;;;;;4947147;29;20043;-73
2022/02/14 07:37:50;;;;;;;833.47;521.30;;;;;;;;;;4947700;28;20491;-73
2022/02/14 07:40:16;;;;;;;836.03;525.15;;;;;;;;;;4947791;28;20030;-74
2022/02/14 07:42:43;;;;;;;835.95;529.22;;;;;;;;;;4951008;28;20036;-74
2022/02/14 07:45:09;;;;;;;836.30;530.47;;;;;;;;;;4950339;29;20490;-74
2022/02/14 07:47:35;;;;;;;835.72;529.15;;;;;;;;;;4950047;28;20162;-74
2022/02/14 07:50:02;;;;;;;835.92;525.15;;;;;;;;;;4948778;29;20073;-73
2022/02/14 07:52:28;;;;;;;835.13;519.65;;;;;;;;;;4947093;29;20034;-73
2022/02/14 07:54:54;;;;;;;834.53;524.45;;;;;;;;;;4948556;28;20039;-73
2022/02/14 07:57:20;;;;;;;833.90;523.90;;;;;;;;;;4950707;28;20027;-74
2022/02/14 07:59:46;;;;;;;837.28;531.60;;;;;;;;;;4948897;28;20061;-74
2022/02/14 08:02:12;;;;;;;836.95;533.90;;;;;;;;;;4950646;28;20035;-73
2022/02/14 08:04:38;;;;;;;829.72;511.42;;;;;;;;;;4946642;28;20472;-74
2022/02/14 08:07:06;;;;;;;834.88;520.92;;;;;;;;;;4950857;28;20114;-73
2022/02/14 08:09:32;;;;;;;834.50;525.83;;;;;;;;;;4947610;28;20041;-73
2022/02/14 08:11:58;;;;;;;831.63;516.70;;;;;;;;;;4942195;29;20067;-74
2022/02/14 08:14:24;;;;;;;830.97;508.95;;;;;;;;;;4950661;28;20073;-73
2022/02/14 08:16:50;;;;;;;825.65;501.48;;;;;;;;;;4949438;29;20387;-73
2022/02/14 08:19:16;;;;;;;825.92;500.55;;;;;;;;;;4948334;28;20059;-73
2022/02/14 08:21:42;;;;;;;824.00;494.35;;;;;;;;;;4948474;28;20035;-73
2022/02/14 08:24:08;;;;;;;825.80;492.85;;;;;;;;;;4947397;29;20031;-72
2022/02/14 08:26:34;;;;;;;821.47;482.35;;;;;;;;;;4948581;29;20197;-72
2022/02/14 08:29:01;;;;;;;819.28;474.85;;;;;;;;;;4947373;28;20039;-72
2022/02/14 08:31:28;;;;;;;819.53;483.65;;;;;;;;;;4948567;28;20769;-73
2022/02/14 08:33:54;;;;;;;819.90;485.25;;;;;;;;;;4940612;28;20120;-73
2022/02/14 08:36:20;;;;;;;821.38;480.50;;;;;;;;;;4947991;29;20083;-73
2022/02/14 08:38:46;;;;;;;819.95;483.17;;;;;;;;;;4947587;28;20093;-72
2022/02/14 08:41:12;;;;;;;818.53;480.58;;;;;;;;;;4948120;28;20035;-74
2022/02/14 08:43:38;;;;;;;816.00;477.75;;;;;;;;;;4948870;29;20164;-74
2022/02/14 08:46:04;;;;;;;818.45;478.98;;;;;;;;;;4933332;29;20525;-74
2022/02/14 08:48:30;;;;;;;819.20;482.35;;;;;;;;;;4949896;28;20560;-74
2022/02/14 08:50:56;;;;;;;818.50;479.65;;;;;;;;;;4944098;28;20027;-74
2022/02/14 08:53:23;;;;;;;819.17;480.33;;;;;;;;;;4946616;28;20118;-74
2022/02/14 08:55:49;;;;;;;816.17;471.25;;;;;;;;;;4947341;29;20118;-74
2022/02/14 08:58:15;;;;;;;816.58;475.20;;;;;;;;;;4949520;28;20039;-73
2022/02/14 09:00:41;;;;;;;820.42;484.48;;;;;;;;;;4948169;28;20023;-73
2022/02/14 09:03:07;;;;;;;818.63;480.83;;;;;;;;;;4947691;28;20031;-73
2022/02/14 09:05:33;;;;;;;821.88;488.58;;;;;;;;;;4947001;28;20105;-74
2022/02/14 09:07:59;;;;;;;819.85;490.45;;;;;;;;;;4949609;28;20041;-73
2022/02/14 09:10:25;;;;;;;820.13;486.85;;;;;;;;;;4944366;28;20451;-73
2022/02/14 09:12:51;;;;;;;821.10;484.50;;;;;;;;;;4948616;28;20031;-73
2022/02/14 09:15:20;;;;;;;820.45;486.63;;;;;;;;;;4945137;28;20028;-71
2022/02/14 09:17:47;;;;;;;821.33;482.90;;;;;;;;;;4946446;29;20039;-73
2022/02/14 09:20:13;;;;;;;817.33;475.15;;;;;;;;;;4955576;28;20483;-73
2022/02/14 09:22:39;;;;;;;821.38;487.38;;;;;;;;;;4939634;28;20027;-73
2022/02/14 09:25:06;;;;;;;820.35;486.63;;;;;;;;;;4945925;29;20474;-72
2022/02/14 09:27:34;;;;;;;819.75;491.48;;;;;;;;;;4947564;28;20027;-72
2022/02/14 09:30:02;;;;;;;822.00;492.85;;;;;;;;;;4954960;28;20055;-74
2022/02/14 09:32:28;;;;;;;820.30;493.20;;;;;;;;;;4956220;28;20110;-73
2022/02/14 09:34:54;;;;;;;825.35;507.88;;;;;;;;;;4946271;28;20063;-72
2022/02/14 09:37:20;;;;;;;826.15;509.48;;;;;;;;;;4947015;28;20081;-73
2022/02/14 09:39:46;;;;;;;821.20;494.55;;;;;;;;;;4937761;29;20030;-73
2022/02/14 09:42:12;;;;;;;825.70;500.30;;;;;;;;;;4946808;28;20360;-73
2022/02/14 09:44:41;;;;;;;825.60;507.52;;;;;;;;;;4945838;28;20502;-72
2022/02/14 09:47:07;;;;;;;829.72;511.25;;;;;;;;;;4944712;28;20036;-73
2022/02/14 09:49:33;;;;;;;829.60;518.28;;;;;;;;;;4944832;28;20030;-72
2022/02/14 09:51:59;;;;;;;832.13;531.80;;;;;;;;;;4943140;28;20505;-73
2022/02/14 09:54:25;;;;;;;834.63;538.25;;;;;;;;;;4943608;28;20570;-72
2022/02/14 09:56:52;;;;;;;837.15;541.53;;;;;;;;;;4946379;28;20110;-73
2022/02/14 09:59:22;;;;;;;842.80;559.22;;;;;;;;;;4945419;29;20039;-73
2022/02/14 10:01:48;;;;;;;844.17;557.97;;;;;;;;;;4943695;28;20044;-74
2022/02/14 10:04:14;;;;;;;840.63;552.67;;;;;;;;;;4948384;28;20120;-74
2022/02/14 10:06:41;;;;;;;840.60;553.10;;;;;;;;;;4951492;28;20035;-73
2022/02/14 10:09:08;;;;;;;837.55;550.22;;;;;;;;;;4947503;28;20027;-74
2022/02/14 10:11:36;;;;;;;837.88;546.00;;;;;;;;;;4950650;28;20027;-74
2022/02/14 10:14:18;;;;;;;835.03;533.20;;;;;;;;;;4946171;28;20426;-75
2022/02/14 10:17:03;;;;;;;836.95;537.70;;;;;;;;;;4964342;28;20085;-74
2022/02/14 10:19:30;;;;;;;831.85;524.03;;;;;;;;;;4952294;28;20714;-74
2022/02/14 10:21:56;;;;;;;833.25;526.17;;;;;;;;;;4949395;29;20797;-74
2022/02/14 10:24:22;;;;;;;838.42;538.60;;;;;;;;;;4948371;28;20043;-74
2022/02/14 10:26:52;;;;;;;834.53;525.28;;;;;;;;;;4963310;28;20031;-74
2022/02/14 10:29:22;;;;;;;830.75;512.42;;;;;;;;;;4951823;28;20463;-74
2022/02/14 10:31:53;;;;;;;832.33;520.78;;;;;;;;;;4952079;28;20031;-73
2022/02/14 10:34:18;;;;;;;;;;;;;;;;;;4947063;29;20031;-73
2022/02/14 10:36:45;;;;;;;824.15;490.40;;;;;;;;;;4949899;28;20640;-73
2022/02/14 10:39:13;;;;;;;829.88;509.92;;;;;;;;;;4948204;28;20491;-74
2022/02/14 10:41:40;;;;;;;833.13;499.58;;;;;;;;;;4948508;29;20035;-74
2022/02/14 10:44:09;;;;;;;830.40;522.65;;;;;;;;;;4944359;29;20042;-74
2022/02/14 10:46:35;;;;;;;831.65;518.40;;;;;;;;;;4963100;28;20371;-76
2022/02/14 10:49:02;;;;;;;833.00;530.05;;;;;;;;;;4951697;28;20031;-74
2022/02/14 10:51:28;;;;;;;837.38;538.40;;;;;;;;;;4947394;29;20470;-74
2022/02/14 10:53:56;;;;;;;839.08;549.15;;;;;;;;;;4949358;28;20686;-74
2022/02/14 10:56:22;;;;;;;837.70;542.83;;;;;;;;;;4943324;28;20031;-74
2022/02/14 10:58:49;;;;;;;841.03;545.85;;;;;;;;;;4948160;28;20035;-74
2022/02/14 11:01:15;;;;;;;842.20;550.35;;;;;;;;;;4945168;29;20031;-74
2022/02/14 11:03:42;;;;;;;842.95;554.63;;;;;;;;;;4951374;28;20045;-74
2022/02/14 11:06:09;;;;;;;844.33;556.47;;;;;;;;;;4948136;29;20042;-74
2022/02/14 11:08:36;;;;;;;847.22;562.90;;;;;;;;;;4950178;28;20046;-74
2022/02/14 11:11:02;;;;;;;843.50;561.92;;;;;;;;;;4947295;28;20115;-74
2022/02/14 11:13:33;;;;;;;846.35;566.03;;;;;;;;;;4945330;28;20077;-74
2022/02/14 11:15:59;;;;;;;845.20;563.33;;;;;;;;;;4949276;28;20104;-73
2022/02/14 11:18:31;;;;;;;846.70;567.08;;;;;;;;;;4951255;28;20406;-73
2022/02/14 11:20:59;;;;;;;846.38;563.28;;;;;;;;;;4946064;28;20031;-74
2022/02/14 11:23:27;;;;;;;841.00;551.55;;;;;;;;;;4944882;28;20062;-74
2022/02/14 11:26:03;;;;;;;840.42;542.88;;;;;;;;;;4947953;29;20030;-74
2022/02/14 11:28:49;;;;;;;838.45;538.92;;;;;;;;;;4948719;28;20093;-74
2022/02/14 11:31:20;;;;;;;835.90;529.22;;;;;;;;;;4947862;29;20051;-75
2022/02/14 11:33:46;;;;;;;;;;;;;;;;;;4950324;29;20455;-74
2022/02/14 11:36:13;;;;;;;835.50;519.17;;;;;;;;;;4948235;28;19926;-74
2022/02/14 11:38:39;;;;;;;837.58;528.97;;;;;;;;;;4959248;28;20115;-74
2022/02/14 11:41:24;;;;;;;843.92;542.85;;;;;;;;;;4950347;28;20122;-74
2022/02/14 11:43:50;;;;;;;833.15;515.80;;;;;;;;;;4950239;28;20476;-73
2022/02/14 11:46:18;;;;;;;842.80;544.33;;;;;;;;;;4948230;29;20069;-74
2022/02/14 11:48:45;;;;;;;843.15;553.15;;;;;;;;;;4944185;28;20043;-74
2022/02/14 11:51:12;;;;;;;846.45;554.40;;;;;;;;;;4949954;28;20069;-73
2022/02/14 11:53:47;;;;;;;840.28;540.75;;;;;;;;;;4943853;28;20031;-74
2022/02/14 11:56:26;;;;;;;838.22;530.83;;;;;;;;;;4948362;28;20027;-73
2022/02/14 11:59:03;;;;;;;835.28;526.40;;;;;;;;;;4947393;29;20739;-74
2022/02/14 12:01:30;;;;;;;834.75;515.90;;;;;;;;;;4950331;28;20031;-73
2022/02/14 12:04:15;;;;;;;838.85;533.47;;;;;;;;;;4948402;28;20034;-74
2022/02/14 12:07:16;;;;;;;837.40;528.22;;;;;;;;;;4950644;28;20528;-74
2022/02/14 12:09:58;;;;;;;835.95;522.65;;;;;;;;;;4944286;28;20058;-73
2022/02/14 12:12:39;;;;;;;839.60;533.67;;;;;;;;;;4949121;28;20031;-73
2022/02/14 12:21:17;;;;;;;834.70;516.33;;;;;;;;;;4950345;29;20588;-73
2022/02/14 12:23:44;;;;;;;836.58;528.85;;;;;;;;;;4947488;28;20031;-73
2022/02/14 12:26:12;;;;;;;840.10;539.25;;;;;;;;;;4949413;28;20611;-74
2022/02/14 12:28:39;;;;;;;839.30;535.33;;;;;;;;;;4948529;28;20067;-74
2022/02/14 12:31:06;;;;;;;839.35;542.33;;;;;;;;;;4948641;28;20023;-74
2022/02/14 12:33:32;;;;;;;842.45;545.33;;;;;;;;;;4947759;28;20098;-74
2022/02/14 12:36:00;;;;;;;837.78;535.33;;;;;;;;;;4948781;28;20045;-78
2022/02/14 12:38:27;;;;;;;841.20;544.85;;;;;;;;;;4947932;28;20039;-74
2022/02/14 12:41:03;;;;;;;844.33;546.67;;;;;;;;;;4947972;28;20391;-74
2022/02/14 12:43:38;;;;;;;835.35;525.20;;;;;;;;;;4947110;29;20199;-73
2022/02/14 12:46:08;;;;;;;837.03;524.92;;;;;;;;;;4947835;29;20047;-74
2022/02/14 12:48:35;;;;;;;838.50;527.87;;;;;;;;;;4952002;28;20062;-74
2022/02/14 12:51:01;;;;;;;836.25;522.53;;;;;;;;;;4944517;29;20020;-74
2022/02/14 12:53:28;;;;;;;836.25;523.15;;;;;;;;;;4940565;29;20850;-74
2022/02/14 12:55:57;;;;;;;839.25;530.38;;;;;;;;;;4946926;28;20030;-74
2022/02/14 12:58:24;;;;;;;838.70;526.50;;;;;;;;;;4946685;29;20133;-74
2022/02/14 13:00:50;;;;;;;841.03;532.47;;;;;;;;;;4949587;28;20033;-74
2022/02/14 13:03:17;;;;;;;840.00;534.95;;;;;;;;;;4950486;28;20035;-73
2022/02/14 13:05:53;;;;;;;839.25;538.00;;;;;;;;;;4963791;28;20027;-74
2022/02/14 13:08:25;;;;;;;840.10;539.13;;;;;;;;;;4949251;29;20531;-74
2022/02/14 13:10:52;;;;;;;836.97;526.58;;;;;;;;;;4943910;29;20019;-74
2022/02/14 13:13:33;;;;;;;839.00;534.58;;;;;;;;;;4950732;28;20050;-74
2022/02/14 13:16:10;;;;;;;834.70;522.83;;;;;;;;;;4944712;29;20221;-74
2022/02/14 13:18:41;;;;;;;834.40;517.15;;;;;;;;;;4949614;29;20483;-73
2022/02/14 13:21:08;;;;;;;838.42;521.08;;;;;;;;;;4949975;28;20027;-74
2022/02/14 13:23:34;;;;;;;837.08;522.97;;;;;;;;;;4933724;29;20032;-75
2022/02/14 13:26:00;;;;;;;835.05;523.58;;;;;;;;;;4950884;28;20034;-74
2022/02/14 13:28:26;;;;;;;834.47;519.45;;;;;;;;;;5012043;28;20088;-74
2022/02/14 13:30:52;;;;;;;842.40;543.53;;;;;;;;;;4988937;28;20029;-74
2022/02/14 13:33:18;;;;;;;838.83;532.40;;;;;;;;;;4964072;28;20023;-74
2022/02/14 13:35:44;;;;;;;839.47;532.20;;;;;;;;;;4953405;28;20051;-73
2022/02/14 13:38:10;;;;;;;840.78;532.28;;;;;;;;;;5025983;28;20535;-74
2022/02/14 13:40:38;;;;;;;834.95;514.38;;;;;;;;;;4986470;28;20049;-74
2022/02/14 13:43:08;;;;;;;836.00;519.30;;;;;;;;;;5004125;28;20352;-74
2022/02/14 13:45:45;;;;;;;833.47;504.35;;;;;;;;;;5009255;28;20023;-74
2022/02/14 13:48:17;;;;;;;836.80;516.28;;;;;;;;;;4985219;28;20026;-74
2022/02/14 13:50:44;;;;;;;837.53;517.30;;;;;;;;;;4974335;28;20055;-74
2022/02/14 13:53:29;;;;;;;835.35;516.22;;;;;;;;;;4962281;28;20036;-74
2022/02/14 13:56:15;;;;;;;836.63;518.53;;;;;;;;;;4959527;28;20035;-75
2022/02/14 13:58:52;;;;;;;837.13;518.75;;;;;;;;;;4970980;28;20065;-74
2022/02/14 14:01:22;;;;;;;837.65;521.08;;;;;;;;;;4968876;28;20081;-74
2022/02/14 14:03:58;;;;;;;836.75;522.50;;;;;;;;;;4988420;28;20033;-74